Latest Weather Observations for Hunters Hill

IDV60801

Issued at 4:05 pm EST Saturday 2 August 2014 (issued every 30 minutes, with the page automatically refreshed every 10 minutes)

About weather observations | Map of weather stations | Latest weather observations for VIC | Other Formats
Station Details ID: 082139 Name: HUNTERS HILL Lat: -36.21 Lon: 147.54 Height: 981.0 m
Data from the previous 72 hours. | See also: Recent months at Hunters Hill
Date/Time
EST
Temp
°C
App
Temp
°C
Dew
Point
Rel
Hum
%
Delta-T
°C
Wind Press
QNH
hPa
Press
MSL
hPa
Rain
since 9 am
mm
Dir
 
Spd
km/h
Gust
km/h
Spd
kts
Gust
kts
02/04:00pm 4.2 1.3 -1.4 67 2.2 S 4 7 2 4 - - 4.8
02/03:30pm 3.8 0.9 -0.8 72 1.8 S 4 9 2 5 - - 4.8
02/03:00pm 4.0 0.6 -2.4 63 2.4 S 6 17 3 9 - - 4.8
02/02:30pm 4.1 0.6 -2.5 62 2.5 SSE 6 15 3 8 - - 4.8
02/02:00pm 4.0 0.9 -2.4 63 2.4 S 4 9 2 5 - - 4.8
02/01:30pm 3.7 0.6 0.1 77 1.4 S 6 11 3 6 - - 4.8
02/01:00pm 3.6 0.4 -0.6 74 1.7 SSE 6 9 3 5 - - 4.8
02/12:30pm 2.9 -0.4 -1.6 72 1.7 SSE 6 13 3 7 - - 4.6
02/12:00pm 2.6 -0.3 -1.0 77 1.4 SSE 4 9 2 5 - - 4.0
02/11:30am 2.5 -0.4 -0.9 78 1.3 SSE 4 9 2 5 - - 3.4
02/11:00am 1.2 -2.1 0.2 93 0.4 SSE 7 22 4 12 - - 3.0
02/10:30am 1.1 -1.5 1.0 99 0.0 SSE 4 7 2 4 - - 1.8
02/10:00am 0.7 -2.3 0.6 99 0.0 SSE 6 15 3 8 - - 1.0
02/09:30am -0.7 -4.1 -0.7 100 0.0 SSE 7 17 4 9 - - 0.6
02/09:00am -1.2 -4.7 -1.2 100 0.0 SSE 7 15 4 8 - - 6.4
02/08:30am -1.3 -4.6 -1.3 100 0.0 SSE 6 7 3 4 - - 6.4
02/08:00am -1.9 -4.1 -1.9 100 0.0 CALM 0 0 0 0 - - 6.4
02/07:30am -2.9 -5.3 -2.9 100 0.0 CALM 0 0 0 0 - - 6.4
02/07:00am -2.6 -4.9 -2.6 100 0.0 CALM 0 0 0 0 - - 6.4
02/06:30am -2.3 -4.6 -2.3 100 0.0 CALM 0 0 0 0 - - 6.4
02/06:00am -2.6 -4.9 -2.6 100 0.0 SW 0 0 0 0 - - 6.4
02/05:30am -2.3 -4.6 -2.3 100 0.0 CALM 0 0 0 0 - - 6.4
02/05:00am -1.9 -4.1 -1.9 100 0.0 CALM 0 0 0 0 - - 6.4
02/04:30am -1.9 -4.1 -1.9 100 0.0 CALM 0 0 0 0 - - 6.4
02/04:00am -1.8 -4.0 -1.8 100 0.0 CALM 0 0 0 0 - - 6.4
02/03:30am -1.6 -3.8 -1.6 100 0.0 W 0 0 0 0 - - 6.4
02/03:00am -1.3 -3.5 -1.3 100 0.0 CALM 0 0 0 0 - - 6.4
02/02:30am -1.4 -3.6 -1.4 100 0.0 CALM 0 0 0 0 - - 6.4
02/02:00am -1.3 -3.5 -1.3 100 0.0 CALM 0 0 0 0 - - 6.4
02/01:30am -1.2 -3.4 -1.2 100 0.0 CALM 0 0 0 0 - - 6.4
02/01:00am -0.9 -3.0 -0.9 100 0.0 CALM 0 0 0 0 - - 6.4
02/12:30am -0.8 -2.9 -0.8 100 0.0 CALM 0 0 0 0 - - 6.4
02/12:00am -0.8 -2.9 -0.8 100 0.0 WSW 0 0 0 0 - - 6.4
 
Date/Time
EST
Temp
°C
App
Temp
°C
Dew
Point
Rel
Hum
%
Delta-T
°C
Wind Press
QNH
hPa
Press
MSL
hPa
Rain
since 9 am
mm
Dir
 
Spd
km/h
Gust
km/h
Spd
kts
Gust
kts
01/11:30pm -0.7 -2.8 -0.7 100 0.0 CALM 0 0 0 0 - - 6.4
01/11:00pm -0.5 -2.6 -0.5 100 0.0 CALM 0 0 0 0 - - 6.4
01/10:30pm -0.5 -2.6 -0.5 100 0.0 CALM 0 0 0 0 - - 6.4
01/10:00pm -0.3 -2.3 -0.3 100 0.0 CALM 0 0 0 0 - - 6.4
01/09:30pm -0.3 -2.3 -0.3 100 0.0 CALM 0 0 0 0 - - 6.4
01/09:00pm -0.3 -2.3 -0.3 100 0.0 CALM 0 0 0 0 - - 6.4
01/08:30pm -0.4 -2.4 -0.4 100 0.0 CALM 0 0 0 0 - - 6.4
01/08:00pm -0.3 -2.3 -0.3 100 0.0 CALM 0 0 0 0 - - 6.4
01/07:30pm -0.3 -2.3 -0.3 100 0.0 CALM 0 0 0 0 - - 6.4
01/07:00pm -0.3 -2.3 -0.3 100 0.0 CALM 0 0 0 0 - - 6.4
01/06:30pm -0.2 -2.2 -0.2 100 0.0 CALM 0 0 0 0 - - 6.4
01/06:00pm -0.3 -2.3 -0.3 100 0.0 WSW 0 0 0 0 - - 6.4
01/05:30pm -0.5 -2.6 -0.5 100 0.0 CALM 0 0 0 0 - - 6.4
01/05:00pm -0.4 -2.4 -0.4 100 0.0 CALM 0 0 0 0 - - 6.2
01/04:30pm -0.6 -2.7 -0.6 100 0.0 CALM 0 0 0 0 - - 6.2
01/04:00pm -0.6 -5.1 -0.6 100 0.0 W 13 26 7 14 - - 6.0
01/03:30pm -0.3 -5.2 -0.3 100 0.0 W 15 32 8 17 - - 6.0
01/03:00pm -0.1 -5.9 -0.1 100 0.0 WNW 20 32 11 17 - - 5.8
01/02:30pm -0.1 -4.9 -0.1 100 0.0 W 15 35 8 19 - - 4.6
01/02:00pm -0.2 -5.1 -0.2 100 0.0 W 15 32 8 17 - - 4.2
01/01:30pm -0.1 -4.9 -0.1 100 0.0 W 15 28 8 15 - - 3.8
01/01:00pm -0.3 -6.1 -0.3 100 0.0 W 20 43 11 23 - - 3.6
01/12:30pm -0.3 -5.6 -0.3 100 0.0 WNW 17 33 9 18 - - 3.4
01/12:00pm -0.1 -4.6 -0.1 100 0.0 NW 13 28 7 15 - - 2.8
01/11:30am -0.1 -4.9 -0.1 100 0.0 WNW 15 28 8 15 - - 1.8
01/11:00am -0.1 -4.9 -0.1 100 0.0 NW 15 33 8 18 - - 0.8
01/10:30am -0.2 -3.9 -0.2 100 0.0 NW 9 22 5 12 - - 0.0
01/10:00am -0.4 -4.5 -0.4 100 0.0 WNW 11 22 6 12 - - 0.0
01/09:30am -0.4 -4.5 -0.4 100 0.0 W 11 20 6 11 - - 0.0
01/09:00am -0.3 -2.3 -0.3 100 0.0 CALM 0 0 0 0 - - 3.4
01/08:30am -0.5 -2.6 -0.5 100 0.0 CALM 0 0 0 0 - - 3.4
01/08:00am -0.7 -2.8 -0.7 100 0.0 CALM 0 0 0 0 - - 3.4
01/07:30am -0.8 -2.9 -0.8 100 0.0 CALM 0 0 0 0 - - 3.4
01/07:00am -0.8 -2.9 -0.8 100 0.0 CALM 0 0 0 0 - - 3.4
01/06:30am -0.6 -2.7 -0.6 100 0.0 CALM 0 0 0 0 - - 3.4
01/06:00am -0.5 -2.6 -0.5 100 0.0 CALM 0 0 0 0 - - 3.4
01/05:30am -0.2 -2.2 -0.2 100 0.0 CALM 0 0 0 0 - - 3.4
01/05:00am -0.1 -2.1 -0.1 100 0.0 CALM 0 - 0 - - - -
01/04:30am 0.1 -5.5 0.1 100 0.0 W 19 35 10 19 - - 3.4
01/04:00am 0.5 -4.3 0.5 100 0.0 W 15 32 8 17 - - 3.4
01/03:30am 0.9 -3.4 0.9 100 0.0 W 13 24 7 13 - - 3.4
01/03:00am 1.2 -3.1 1.2 100 0.0 W 13 24 7 13 - - 3.2
01/02:30am 0.8 -3.5 0.8 100 0.0 W 13 26 7 14 - - 3.0
01/02:00am 0.8 -3.9 0.8 100 0.0 W 15 28 8 15 - - 2.4
01/01:30am 1.0 -4.1 1.0 100 0.0 WSW 17 39 9 21 - - 1.8
01/01:00am 2.1 -3.2 2.1 100 0.0 W 19 37 10 20 - - 1.0
01/12:30am 3.1 -2.2 3.1 100 0.0 W 20 39 11 21 - - 0.0
01/12:00am 4.1 -0.4 4.0 99 0.0 WNW 17 37 9 20 - - 0.0
 
Date/Time
EST
Temp
°C
App
Temp
°C
Dew
Point
Rel
Hum
%
Delta-T
°C
Wind Press
QNH
hPa
Press
MSL
hPa
Rain
since 9 am
mm
Dir
 
Spd
km/h
Gust
km/h
Spd
kts
Gust
kts
31/11:30pm 4.7 0.3 4.6 99 0.0 W 17 33 9 18 - - 0.0
31/11:00pm 5.2 1.1 4.6 96 0.3 W 15 35 8 19 - - 0.0
31/10:30pm 6.1 0.7 4.3 88 0.8 W 22 50 12 27 - - 0.0
31/10:00pm 9.9 3.1 -1.5 45 4.7 WNW 24 52 13 28 - - 0.0
31/09:53pm 10.2 2.6 -1.8 43 4.9 NW 28 52 15 28 - - 0.0
31/09:30pm 11.2 4.3 -2.6 38 5.6 NW 24 52 13 28 - - 0.0
31/09:00pm 10.9 4.4 -2.1 40 5.3 NNW 22 43 12 23 - - 0.0
31/08:30pm 10.9 3.7 -2.1 40 5.3 NNW 26 57 14 31 - - 0.0
31/08:00pm 10.6 4.2 -1.4 43 5.0 NNW 22 39 12 21 - - 0.0
31/07:30pm 10.4 4.1 -0.7 46 4.7 NNW 22 41 12 22 - - 0.0
31/07:00pm 10.3 4.1 -0.2 48 4.5 NNW 22 41 12 22 - - 0.0
31/06:30pm 10.5 4.3 0.0 48 4.5 NNW 22 37 12 20 - - 0.0
31/06:00pm 10.1 4.5 1.5 55 3.8 NNW 20 37 11 20 - - 0.0
31/05:30pm 10.1 4.8 2.0 57 3.6 NNW 19 43 10 23 - - 0.0
31/05:00pm 10.3 5.8 2.4 58 3.6 NNW 15 32 8 17 - - 0.0
31/04:30pm 10.6 5.9 3.2 60 3.4 NNW 17 35 9 19 - - 0.0
31/04:00pm 11.0 5.7 2.8 57 3.8 NNW 20 37 11 20 - - 0.0
31/03:30pm 11.2 5.1 2.8 56 3.9 NNW 24 50 13 27 - - 0.0
31/03:03pm 11.4 4.4 2.2 53 4.2 NNW 28 50 15 27 - - 0.0
31/03:00pm 11.4 4.8 2.2 53 4.2 NNW 26 46 14 25 - - 0.0
31/02:35pm 11.6 4.4 0.7 47 4.8 NNW 28 50 15 27 - - 0.0
31/02:30pm 11.8 5.1 1.2 48 4.7 NNW 26 48 14 26 - - 0.0
31/02:00pm 11.7 4.2 1.4 49 4.6 NW 30 56 16 30 - - 0.0
31/01:42pm 11.4 4.5 2.7 55 4.0 NW 28 50 15 27 - - 0.0
31/01:30pm 11.6 5.5 2.9 55 4.0 NW 24 52 13 28 - - 0.0
31/01:00pm 11.3 5.6 3.1 57 3.8 NNW 22 43 12 23 - - 0.0
31/12:30pm 10.9 5.0 3.7 61 3.4 NNW 24 43 13 23 - - 0.0
31/12:00pm 11.1 6.8 5.2 67 2.9 NW 17 35 9 19 - - 0.0
31/11:30am 10.3 5.6 5.3 71 2.4 NNW 19 32 10 17 - - 0.0
31/11:00am 9.6 5.3 5.2 74 2.1 NW 17 32 9 17 - - 0.0
31/10:30am 8.9 4.6 5.3 78 1.7 NW 17 32 9 17 - - 0.0
31/10:00am 8.4 4.0 5.0 79 1.6 NNW 17 35 9 19 - - 0.0
31/09:30am 7.8 3.9 5.3 84 1.2 NNW 15 22 8 12 - - 0.0
31/09:00am 7.3 4.2 5.6 89 0.8 NNW 11 26 6 14 - - 7.6
31/08:30am 6.8 3.5 6.4 97 0.2 NNW 13 24 7 13 - - 7.6
31/08:00am 7.1 3.8 6.4 95 0.3 NNW 13 28 7 15 - - 7.6
31/07:30am 7.1 3.6 7.0 99 0.0 NNW 15 35 8 19 - - 7.6
31/07:00am 6.6 3.7 6.6 100 0.0 NNW 11 22 6 12 - - 7.6
31/06:30am 6.3 3.4 6.3 100 0.0 NW 11 24 6 13 - - 7.6
31/06:00am 6.5 4.0 6.5 100 0.0 NW 9 19 5 10 - - 7.6
31/05:30am 6.7 4.2 6.7 100 0.0 NW 9 17 5 9 - - 7.6
31/05:00am 6.8 4.7 6.8 100 0.0 NW 7 15 4 8 - - 7.6
31/04:30am 6.7 4.6 6.7 100 0.0 NW 7 15 4 8 - - 7.6
31/04:00am 6.9 4.9 6.9 100 0.0 NW 7 15 4 8 - - 7.6
31/03:30am 7.0 5.0 7.0 100 0.0 WNW 7 15 4 8 - - 7.6
31/03:00am 7.1 5.1 7.1 100 0.0 NW 7 13 4 7 - - 7.6
31/02:30am 7.2 4.8 7.2 100 0.0 NW 9 15 5 8 - - 7.6
31/02:00am 7.4 5.5 7.4 100 0.0 NW 7 20 4 11 - - 7.6
31/01:30am 7.4 5.5 7.4 100 0.0 NW 7 15 4 8 - - 7.6
31/01:00am 7.5 5.6 7.5 100 0.0 WNW 7 13 4 7 - - 7.6
31/12:30am 7.7 5.5 7.7 100 0.0 WNW 9 19 5 10 - - 7.6
31/12:00am 7.7 5.8 7.7 100 0.0 WNW 7 13 4 7 - - 7.6
 
Date/Time
EST
Temp
°C
App
Temp
°C
Dew
Point
Rel
Hum
%
Delta-T
°C
Wind Press
QNH
hPa
Press
MSL
hPa
Rain
since 9 am
mm
Dir
 
Spd
km/h
Gust
km/h
Spd
kts
Gust
kts
30/11:30pm 7.6 5.7 7.6 100 0.0 WNW 7 20 4 11 - - 7.6
30/11:00pm 7.8 5.2 7.8 100 0.0 WNW 11 24 6 13 - - 7.6
30/10:30pm 7.9 5.3 7.9 100 0.0 WNW 11 19 6 10 - - 7.6
30/10:00pm 8.0 5.5 8.0 100 0.0 WNW 11 24 6 13 - - 7.6
30/09:30pm 8.0 5.5 8.0 100 0.0 WNW 11 24 6 13 - - 7.6
30/09:00pm 8.0 5.5 8.0 100 0.0 WNW 11 20 6 11 - - 7.6
30/08:30pm 8.0 5.5 8.0 100 0.0 WNW 11 20 6 11 - - 7.6
30/08:00pm 8.0 5.1 8.0 100 0.0 WNW 13 28 7 15 - - 7.6
30/07:30pm 7.9 5.3 7.9 100 0.0 WNW 11 20 6 11 - - 7.6
30/07:00pm 7.9 5.7 7.9 100 0.0 WNW 9 22 5 12 - - 7.6
30/06:30pm 7.9 5.7 7.9 100 0.0 WNW 9 20 5 11 - - 7.6
30/06:00pm 7.8 4.4 7.8 100 0.0 WNW 15 35 8 19 - - 7.4
30/05:30pm 7.7 4.7 7.7 100 0.0 WNW 13 30 7 16 - - 7.4
30/05:00pm 7.5 4.5 7.5 100 0.0 WNW 13 30 7 16 - - 7.4
30/04:30pm 7.5 4.1 7.5 100 0.0 WNW 15 24 8 13 - - 7.4

Other Formats:

Comma delimited format used in spreadsheet applications
http://www.bom.gov.au/fwo/IDV60801/IDV60801.94878.axf

JavaScript Object Notation format (JSON) in row-major order
http://www.bom.gov.au/fwo/IDV60801/IDV60801.94878.json